Dinangat Airport


Codes: AYDN/DNU
Name: Dinangat Airport
City: Dinangat
Country: Papua New Guinea
Elevation: 5309 ft.

Photos at Dinangat Airport


   Photos courtesy of SpottingLog. You can add your own sightings and photos by signing up for a free trial today.



No photos found.

Weather at Dinangat Airport


Time (UTC)DescriptionTempratureWindCloud coverageVisibilityPressureHumidity
17-Jun-2024 06:00Light Rain22°C2 mph, SW42%10000m1014hPa79%
17-Jun-2024 09:00Light Rain19°C4 mph, SW56%10000m1015hPa88%
17-Jun-2024 12:00Light Rain17°C4 mph, SW67%9857m1018hPa89%
17-Jun-2024 15:00Overcast Clouds17°C2 mph, SW94%10000m1017hPa88%
17-Jun-2024 18:00Overcast Clouds16°C2 mph, SW89%10000m1016hPa85%
17-Jun-2024 21:00Broken Clouds16°C2 mph, S60%10000m1017hPa86%
18-Jun-2024 00:00Scattered Clouds22°C4 mph, S48%10000m1015hPa64%
18-Jun-2024 03:00Light Rain23°C4 mph, SW21%10000m1013hPa75%
18-Jun-2024 06:00Light Rain20°C2 mph, SW59%7545m1013hPa89%
18-Jun-2024 09:00Light Rain18°C2 mph, SW78%10000m1014hPa96%
18-Jun-2024 12:00Light Rain18°C4 mph, SW73%1592m1016hPa98%
18-Jun-2024 15:00Light Rain17°C4 mph, N86%0m1015hPa99%
18-Jun-2024 18:00Light Rain17°C4 mph, N93%0m1015hPa98%
18-Jun-2024 21:00Light Rain17°C4 mph, SW89%149m1016hPa97%
19-Jun-2024 00:00Light Rain20°C4 mph, S85%6336m1016hPa85%
19-Jun-2024 03:00Light Rain20°C2 mph, S100%4232m1014hPa92%
19-Jun-2024 06:00Light Rain19°C2 mph, SW100%1696m1013hPa96%
19-Jun-2024 09:00Light Rain18°C2 mph, N98%0m1014hPa99%
19-Jun-2024 12:00Light Rain17°C4 mph, SW96%1333m1016hPa98%
19-Jun-2024 15:00Light Rain16°C4 mph, S100%10000m1015hPa97%
19-Jun-2024 18:00Overcast Clouds16°C4 mph, S100%10000m1015hPa97%
19-Jun-2024 21:00Overcast Clouds16°C4 mph, SW100%10000m1016hPa96%
20-Jun-2024 00:00Overcast Clouds19°C4 mph, S100%10000m1015hPa84%
20-Jun-2024 03:00Light Rain21°C4 mph, S85%7230m1013hPa84%
20-Jun-2024 06:00Light Rain19°C2 mph, S98%8326m1012hPa90%
20-Jun-2024 09:00Light Rain18°C2 mph, SW100%10000m1015hPa96%
20-Jun-2024 12:00Light Rain17°C4 mph, SW100%10000m1017hPa97%
20-Jun-2024 15:00Overcast Clouds17°C4 mph, S100%7601m1015hPa97%
20-Jun-2024 18:00Light Rain17°C4 mph, S100%894m1014hPa97%
20-Jun-2024 21:00Light Rain17°C2 mph, S99%6890m1016hPa97%
21-Jun-2024 00:00Light Rain19°C4 mph, S100%10000m1016hPa89%
21-Jun-2024 03:00Light Rain18°C2 mph, S100%10000m1014hPa98%
21-Jun-2024 06:00Light Rain18°C2 mph, S100%10000m1013hPa97%
21-Jun-2024 09:00Light Rain17°C2 mph, S100%9222m1016hPa99%
21-Jun-2024 12:00Overcast Clouds17°C2 mph, S100%10000m1018hPa95%
21-Jun-2024 15:00Overcast Clouds16°C4 mph, S100%10000m1017hPa95%
21-Jun-2024 18:00Overcast Clouds16°C4 mph, S100%10000m1016hPa94%
21-Jun-2024 21:00Light Rain16°C2 mph, SW100%10000m1017hPa91%
22-Jun-2024 00:00Overcast Clouds19°C4 mph, SW100%10000m1017hPa85%
22-Jun-2024 03:00Light Rain19°C2 mph, S100%6694m1015hPa90%